Time,TemperatureF,DewpointF,PressureIn,WindDirection,WindDirectionDegrees,WindSpeedMPH,WindSpeedGustMPH,Humidity,HourlyPrecipIn,Conditions,Clouds,dailyrainin,SoftwareType,DateUTC
2013-02-16 00:12:00,34.2,29.0,30.10,NNE,13,0.0,0.0,80,0.00,,,0.00,weatherlink.com 1.10,2013-02-16 05:12:00,
2013-02-16 00:27:00,34.6,29.0,30.10,East,81,0.0,1.0,79,0.00,,,0.00,weatherlink.com 1.10,2013-02-16 05:27:00,
2013-02-16 00:42:00,34.4,29.0,30.10,East,81,0.0,0.0,79,0.00,,,0.00,weatherlink.com 1.10,2013-02-16 05:42:00,
2013-02-16 00:57:00,34.0,29.0,30.10,East,81,0.0,0.0,81,0.00,,,0.00,weatherlink.com 1.10,2013-02-16 05:57:00,
2013-02-16 01:12:00,33.9,29.0,30.10,East,81,0.0,0.0,82,0.00,,,0.00,weatherlink.com 1.10,2013-02-16 06:12:00,
2013-02-16 01:27:00,34.0,29.0,30.09,East,81,0.0,0.0,81,0.00,,,0.00,weatherlink.com 1.10,2013-02-16 06:27:00,
2013-02-16 01:42:00,33.9,28.0,30.09,ENE,63,0.0,0.0,80,0.00,,,0.00,weatherlink.com 1.10,2013-02-16 06:42:00,
2013-02-16 01:57:00,33.5,28.0,30.09,ENE,63,0.0,0.0,81,0.00,,,0.00,weatherlink.com 1.10,2013-02-16 06:57:00,
2013-02-16 02:12:00,34.7,28.0,30.08,North,350,0.0,1.0,76,0.00,,,0.00,weatherlink.com 1.10,2013-02-16 07:12:00,
2013-02-16 02:27:00,35.5,28.0,30.08,WNW,285,1.0,3.0,73,0.00,,,0.00,weatherlink.com 1.10,2013-02-16 07:27:00,
2013-02-16 02:42:00,35.8,27.0,30.07,West,269,1.0,2.0,71,0.00,,,0.00,weatherlink.com 1.10,2013-02-16 07:42:00,
2013-02-16 02:57:00,35.7,27.0,30.07,NNW,345,0.0,5.0,70,0.00,,,0.00,weatherlink.com 1.10,2013-02-16 07:57:00,
2013-02-16 03:12:00,35.5,26.0,30.06,WNW,291,1.0,4.0,69,0.00,,,0.00,weatherlink.com 1.10,2013-02-16 08:12:00,
2013-02-16 03:27:00,35.3,26.0,30.06,NW,321,1.0,4.0,69,0.00,,,0.00,weatherlink.com 1.10,2013-02-16 08:27:00,
2013-02-16 03:42:00,34.9,26.0,30.06,NW,326,2.0,3.0,69,0.00,,,0.00,weatherlink.com 1.10,2013-02-16 08:42:00,
2013-02-16 03:57:00,34.7,26.0,30.07,NW,307,1.0,4.0,70,0.00,,,0.00,weatherlink.com 1.10,2013-02-16 08:57:00,
2013-02-16 04:12:00,34.3,25.0,30.06,NNE,27,2.0,6.0,69,0.00,,,0.00,weatherlink.com 1.10,2013-02-16 09:12:00,
2013-02-16 04:27:00,33.9,25.0,30.06,NW,312,0.0,3.0,69,0.00,,,0.00,weatherlink.com 1.10,2013-02-16 09:27:00,
2013-02-16 04:42:00,33.5,24.0,30.06,North,7,0.0,2.0,68,0.00,,,0.00,weatherlink.com 1.10,2013-02-16 09:42:00,
2013-02-16 05:00:00,33.0,23.0,30.07,NNW,338,2.0,4.0,68,0.00,,,0.00,weatherlink.com 1.10,2013-02-16 10:00:00,
2013-02-16 05:12:00,32.7,23.0,30.07,North,359,5.0,7.0,68,0.00,,,0.00,weatherlink.com 1.10,2013-02-16 10:12:00,
2013-02-16 05:27:00,32.3,23.0,30.07,WNW,300,0.0,7.0,68,0.00,,,0.00,weatherlink.com 1.10,2013-02-16 10:27:00,
2013-02-16 05:42:00,31.8,22.0,30.07,NNW,333,0.0,6.0,68,0.00,,,0.00,weatherlink.com 1.10,2013-02-16 10:42:00,
2013-02-16 05:57:00,31.5,22.0,30.07,WNW,292,1.0,3.0,68,0.00,,,0.00,weatherlink.com 1.10,2013-02-16 10:57:00,
2013-02-16 06:12:00,31.2,22.0,30.07,NNW,347,3.0,3.0,69,0.00,,,0.00,weatherlink.com 1.10,2013-02-16 11:12:00,
2013-02-16 06:27:00,30.8,22.0,30.07,NNW,346,0.0,1.0,69,0.00,,,0.00,weatherlink.com 1.10,2013-02-16 11:27:00,
2013-02-16 06:42:00,30.4,22.0,30.07,NW,311,0.0,1.0,71,0.00,,,0.00,weatherlink.com 1.10,2013-02-16 11:42:00,
2013-02-16 06:58:00,29.9,22.0,30.07,NNW,348,0.0,1.0,72,0.00,,,0.00,weatherlink.com 1.10,2013-02-16 11:58:00,
2013-02-16 07:13:00,29.8,21.0,30.08,NW,321,0.0,5.0,70,0.00,,,0.00,weatherlink.com 1.10,2013-02-16 12:13:00,
2013-02-16 07:28:00,29.7,21.0,30.08,WNW,298,1.0,3.0,71,0.00,,,0.00,weatherlink.com 1.10,2013-02-16 12:28:00,
2013-02-16 07:43:00,29.7,21.0,30.08,NNW,337,0.0,3.0,71,0.00,,,0.00,weatherlink.com 1.10,2013-02-16 12:43:00,
2013-02-16 07:58:00,29.7,21.0,30.09,WNW,295,0.0,3.0,71,0.00,,,0.00,weatherlink.com 1.10,2013-02-16 12:58:00,
2013-02-16 08:13:00,29.7,21.0,30.09,NW,317,1.0,3.0,71,0.00,,,0.00,weatherlink.com 1.10,2013-02-16 13:13:00,
2013-02-16 08:28:00,30.0,21.0,30.09,NW,322,0.0,2.0,70,0.00,,,0.00,weatherlink.com 1.10,2013-02-16 13:28:00,
2013-02-16 08:46:00,30.3,21.0,30.10,NW,321,0.0,4.0,68,0.00,,,0.00,weatherlink.com 1.10,2013-02-16 13:46:00,
2013-02-16 08:58:00,30.3,21.0,30.10,WNW,288,1.0,4.0,69,0.00,,,0.00,weatherlink.com 1.10,2013-02-16 13:58:00,
2013-02-16 09:13:00,30.9,22.0,30.10,ENE,64,3.0,6.0,69,0.00,,,0.00,weatherlink.com 1.10,2013-02-16 14:13:00,
2013-02-16 09:29:00,31.4,21.0,30.09,WNW,294,2.0,7.0,66,0.00,,,0.00,weatherlink.com 1.10,2013-02-16 14:29:00,
2013-02-16 09:43:00,32.8,21.0,30.10,NW,316,0.0,5.0,63,0.00,,,0.00,weatherlink.com 1.10,2013-02-16 14:43:00,
2013-02-16 09:58:00,34.0,21.0,30.10,NNW,346,2.0,6.0,60,0.00,,,0.00,weatherlink.com 1.10,2013-02-16 14:58:00,
2013-02-16 10:13:00,34.8,20.0,30.10,NW,318,2.0,9.0,56,0.00,,,0.00,weatherlink.com 1.10,2013-02-16 15:13:00,
2013-02-16 10:28:00,35.3,20.0,30.10,North,3,1.0,10.0,53,0.00,,,0.00,weatherlink.com 1.10,2013-02-16 15:28:00,
2013-02-16 10:43:00,35.8,19.0,30.10,WNW,303,7.0,8.0,50,0.00,,,0.00,weatherlink.com 1.10,2013-02-16 15:43:00,
2013-02-16 10:58:00,35.9,19.0,30.10,NW,319,7.0,9.0,51,0.00,,,0.00,weatherlink.com 1.10,2013-02-16 15:58:00,
2013-02-16 11:13:00,36.1,18.0,30.11,North,3,2.0,8.0,49,0.00,,,0.00,weatherlink.com 1.10,2013-02-16 16:13:00,
2013-02-16 11:28:00,36.6,18.0,30.11,West,277,1.0,7.0,47,0.00,,,0.00,weatherlink.com 1.10,2013-02-16 16:28:00,
2013-02-16 11:43:00,37.9,17.0,30.10,NW,310,4.0,7.0,42,0.00,,,0.00,weatherlink.com 1.10,2013-02-16 16:43:00,
2013-02-16 11:58:00,38.2,15.0,30.10,NNE,13,4.0,6.0,39,0.00,,,0.00,weatherlink.com 1.10,2013-02-16 16:58:00,
2013-02-16 12:13:00,38.6,15.0,30.10,WNW,302,1.0,8.0,39,0.00,,,0.00,weatherlink.com 1.10,2013-02-16 17:13:00,
2013-02-16 12:30:00,37.8,13.0,30.10,NW,311,4.0,10.0,37,0.00,,,0.00,weatherlink.com 1.10,2013-02-16 17:30:00,
2013-02-16 12:43:00,37.9,15.0,30.10,West,276,0.0,8.0,39,0.00,,,0.00,weatherlink.com 1.10,2013-02-16 17:43:00,
2013-02-16 12:58:00,37.5,14.0,30.10,WNW,302,5.0,11.0,39,0.00,,,0.00,weatherlink.com 1.10,2013-02-16 17:58:00,
2013-02-16 13:13:00,37.1,14.0,30.09,NW,319,2.0,8.0,39,0.00,,,0.00,weatherlink.com 1.10,2013-02-16 18:13:00,
2013-02-16 13:28:00,38.2,14.0,30.09,NNW,336,2.0,11.0,37,0.00,,,0.00,weatherlink.com 1.10,2013-02-16 18:28:00,
2013-02-16 13:43:00,36.4,13.0,30.08,NE,43,1.0,6.0,39,0.00,,,0.00,weatherlink.com 1.10,2013-02-16 18:43:00,
2013-02-16 13:58:00,37.0,14.0,30.09,NW,305,4.0,11.0,39,0.00,,,0.00,weatherlink.com 1.10,2013-02-16 18:58:00,
2013-02-16 14:13:00,38.6,15.0,30.08,North,352,5.0,8.0,38,0.00,,,0.00,weatherlink.com 1.10,2013-02-16 19:13:00,
2013-02-16 14:28:00,37.1,14.0,30.08,North,349,5.0,6.0,39,0.00,,,0.00,weatherlink.com 1.10,2013-02-16 19:28:00,
2013-02-16 14:43:00,36.9,13.0,30.08,NW,314,8.0,8.0,37,0.00,,,0.00,weatherlink.com 1.10,2013-02-16 19:43:00,
2013-02-16 14:58:00,36.4,14.0,30.09,NNW,338,1.0,13.0,40,0.00,,,0.00,weatherlink.com 1.10,2013-02-16 19:58:00,
2013-02-16 15:13:00,37.6,13.0,30.08,NW,313,1.0,7.0,37,0.00,,,0.00,weatherlink.com 1.10,2013-02-16 20:13:00,
2013-02-16 15:28:00,35.8,14.0,30.09,WNW,300,3.0,13.0,40,0.00,,,0.00,weatherlink.com 1.10,2013-02-16 20:28:00,
2013-02-16 15:43:00,36.7,14.0,30.09,WSW,250,2.0,5.0,40,0.00,,,0.00,weatherlink.com 1.10,2013-02-16 20:43:00,
2013-02-16 15:58:00,37.5,14.0,30.09,West,278,3.0,7.0,38,0.00,,,0.00,weatherlink.com 1.10,2013-02-16 20:58:00,
2013-02-16 16:13:00,36.6,14.0,30.10,West,281,8.0,8.0,39,0.00,,,0.00,weatherlink.com 1.10,2013-02-16 21:13:00,
2013-02-16 16:28:00,36.4,16.0,30.10,WNW,293,0.0,8.0,44,0.00,,,0.00,weatherlink.com 1.10,2013-02-16 21:28:00,
2013-02-16 16:43:00,36.4,16.0,30.10,NNW,348,0.0,7.0,43,0.00,,,0.00,weatherlink.com 1.10,2013-02-16 21:43:00,
2013-02-16 16:58:00,36.3,15.0,30.11,NNE,12,3.0,9.0,42,0.00,,,0.00,weatherlink.com 1.10,2013-02-16 21:58:00,
2013-02-16 17:13:00,34.8,15.0,30.11,North,354,2.0,11.0,45,0.00,,,0.00,weatherlink.com 1.10,2013-02-16 22:13:00,
2013-02-16 17:28:00,34.7,15.0,30.11,WNW,294,3.0,5.0,45,0.00,,,0.00,weatherlink.com 1.10,2013-02-16 22:28:00,
2013-02-16 17:43:00,34.0,16.0,30.12,NW,310,1.0,3.0,47,0.00,,,0.00,weatherlink.com 1.10,2013-02-16 22:43:00,
2013-02-16 17:58:00,33.6,17.0,30.12,West,267,0.0,2.0,51,0.00,,,0.00,weatherlink.com 1.10,2013-02-16 22:58:00,
2013-02-16 18:13:00,33.1,17.0,30.13,WNW,294,0.0,3.0,53,0.00,,,0.00,weatherlink.com 1.10,2013-02-16 23:13:00,
2013-02-16 18:28:00,31.4,21.0,30.15,NW,304,3.0,12.0,65,0.00,,,0.00,weatherlink.com 1.10,2013-02-16 23:28:00,
2013-02-16 18:44:00,29.2,23.0,30.15,WNW,285,0.0,2.0,77,0.00,,,0.00,weatherlink.com 1.10,2013-02-16 23:44:00,
2013-02-16 18:59:00,28.8,22.0,30.15,West,278,0.0,0.0,77,0.00,,,0.00,weatherlink.com 1.10,2013-02-16 23:59:00,
2013-02-16 19:14:00,28.4,22.0,30.15,West,278,0.0,0.0,78,0.00,,,0.00,weatherlink.com 1.10,2013-02-17 00:14:00,
2013-02-16 19:29:00,27.9,23.0,30.15,West,278,0.0,0.0,80,0.00,,,0.00,weatherlink.com 1.10,2013-02-17 00:29:00,
2013-02-16 19:44:00,27.2,22.0,30.15,West,278,0.0,0.0,80,0.00,,,0.00,weatherlink.com 1.10,2013-02-17 00:44:00,
2013-02-16 19:59:00,26.6,22.0,30.16,West,277,0.0,0.0,82,0.00,,,0.00,weatherlink.com 1.10,2013-02-17 00:59:00,
2013-02-16 20:14:00,25.8,22.0,30.16,West,277,0.0,0.0,84,0.00,,,0.00,weatherlink.com 1.10,2013-02-17 01:14:00,
2013-02-16 20:29:00,25.5,22.0,30.16,West,277,0.0,0.0,85,0.00,,,0.00,weatherlink.com 1.10,2013-02-17 01:29:00,
2013-02-16 20:44:00,25.4,20.0,30.17,West,276,0.0,0.0,80,0.00,,,0.00,weatherlink.com 1.10,2013-02-17 01:44:00,
2013-02-16 20:59:00,26.5,19.0,30.17,NNE,13,0.0,1.0,73,0.00,,,0.00,weatherlink.com 1.10,2013-02-17 01:59:00,
2013-02-16 21:14:00,28.0,17.0,30.18,NE,39,0.0,5.0,63,0.00,,,0.00,weatherlink.com 1.10,2013-02-17 02:14:00,
2013-02-16 21:29:00,28.6,13.0,30.19,North,358,0.0,2.0,53,0.00,,,0.00,weatherlink.com 1.10,2013-02-17 02:29:00,
2013-02-16 21:44:00,28.8,13.0,30.20,East,86,0.0,3.0,51,0.00,,,0.00,weatherlink.com 1.10,2013-02-17 02:44:00,
2013-02-16 21:59:00,28.6,12.0,30.20,West,273,0.0,1.0,49,0.00,,,0.00,weatherlink.com 1.10,2013-02-17 02:59:00,
2013-02-16 22:14:00,28.7,11.0,30.20,West,278,0.0,4.0,47,0.00,,,0.00,weatherlink.com 1.10,2013-02-17 03:14:00,
2013-02-16 22:29:00,28.4,10.0,30.20,NW,304,0.0,3.0,46,0.00,,,0.00,weatherlink.com 1.10,2013-02-17 03:29:00,
2013-02-16 22:44:00,27.7,11.0,30.21,WNW,290,0.0,1.0,50,0.00,,,0.00,weatherlink.com 1.10,2013-02-17 03:44:00,
2013-02-16 22:59:00,27.0,13.0,30.21,North,353,0.0,2.0,55,0.00,,,0.00,weatherlink.com 1.10,2013-02-17 03:59:00,
2013-02-16 23:14:00,26.2,12.0,30.21,NNW,330,0.0,3.0,55,0.00,,,0.00,weatherlink.com 1.10,2013-02-17 04:14:00,
2013-02-16 23:29:00,24.9,13.0,30.21,NNW,329,0.0,1.0,60,0.00,,,0.00,weatherlink.com 1.10,2013-02-17 04:29:00,
2013-02-16 23:44:00,24.6,14.0,30.21,NNE,15,0.0,0.0,63,0.00,,,0.00,weatherlink.com 1.10,2013-02-17 04:44:00,
2013-02-16 23:59:00,23.8,14.0,30.21,NNE,24,0.0,0.0,67,0.00,,,0.00,weatherlink.com 1.10,2013-02-17 04:59:00,